Time;durP1;ratioP1;P1;durP2;ratioP2;P2;SDS_P1;SDS_P2;PMS_P1;PMS_P2;Temp;Humidity;BMP_temperature;BMP_pressure;BME280_temperature;BME280_humidity;BME280_pressure;Samples;Min_cycle;Max_cycle;Signal;HPM_P1;HPM_P2
2023/06/09 00:01:37;;;;;;;22.60;11.00;;;;;;;16.43;99.55;100066.35;180846;1256;58742;-59
2023/06/09 00:05:43;;;;;;;22.60;11.40;;;;;;;16.35;100.00;100068.14;180705;1256;44855;-59
2023/06/09 00:09:46;;;;;;;12.80;9.50;;;;;;;16.29;100.00;100062.48;180686;1256;45484;-59
2023/06/09 00:13:50;;;;;;;15.80;12.10;;;;;;;16.28;100.00;100061.87;180678;1256;45905;-60
2023/06/09 00:17:54;;;;;;;12.70;8.80;;;;;;;16.28;100.00;100060.65;180622;1257;44337;-58
2023/06/09 00:21:57;;;;;;;13.40;9.90;;;;;;;16.27;100.00;100060.39;180672;1257;58197;-58
2023/06/09 00:26:02;;;;;;;12.80;9.30;;;;;;;16.27;100.00;100059.31;180657;1256;43511;-58
2023/06/09 00:30:08;;;;;;;17.80;9.50;;;;;;;16.24;100.00;100062.23;180588;1256;43922;-58
2023/06/09 00:34:12;;;;;;;14.00;9.20;;;;;;;16.20;100.00;100058.30;180771;1257;43573;-58
2023/06/09 00:38:15;;;;;;;15.10;9.40;;;;;;;16.19;100.00;100055.23;180826;1257;43553;-59
2023/06/09 00:42:18;;;;;;;11.60;8.90;;;;;;;16.17;100.00;100061.68;180871;1256;58871;-58
2023/06/09 00:46:22;;;;;;;14.90;8.10;;;;;;;16.05;100.00;100064.80;180815;1256;46007;-58
2023/06/09 00:50:26;;;;;;;12.80;9.80;;;;;;;15.90;100.00;100064.53;180733;1256;45883;-58
2023/06/09 00:54:30;;;;;;;26.40;9.60;;;;;;;15.79;100.00;100064.98;180596;1257;46191;-59
2023/06/09 00:58:36;;;;;;;17.30;9.70;;;;;;;15.70;100.00;100068.84;180536;1256;43624;-58
2023/06/09 01:02:40;;;;;;;10.70;6.90;;;;;;;15.57;100.00;100068.79;180780;1260;57934;-59
2023/06/09 01:06:56;;;;;;;;;;;;;;;15.51;100.00;100070.81;180717;1257;46035;-58
2023/06/09 01:11:19;;;;;;;20.20;10.00;;;;;;;15.55;100.00;100067.68;180910;1257;44506;-58
2023/06/09 01:15:35;;;;;;;8.10;7.00;;;;;;;15.50;100.00;100066.36;180673;1260;43827;-58
2023/06/09 01:19:43;;;;;;;28.50;8.70;;;;;;;15.35;100.00;100071.83;180725;1257;46009;-58
2023/06/09 01:24:14;;;;;;;11.30;8.10;;;;;;;15.29;100.00;100071.71;180511;1260;58252;-58
2023/06/09 01:28:23;;;;;;;13.70;7.90;;;;;;;15.29;100.00;100063.46;180708;1260;46163;-59
2023/06/09 01:32:41;;;;;;;27.10;10.60;;;;;;;15.36;100.00;100058.34;180758;1260;45935;-59
2023/06/09 01:36:44;;;;;;;;;;;;;;;15.36;100.00;100060.33;180609;1257;46694;-58
2023/06/09 01:40:51;;;;;;;24.20;9.20;;;;;;;15.34;100.00;100058.52;180544;1257;44876;-58
2023/06/09 01:45:09;;;;;;;17.40;8.80;;;;;;;15.31;100.00;100063.11;180702;1258;58569;-58
2023/06/09 01:49:53;;;;;;;13.90;8.90;;;;;;;15.32;100.00;100063.52;180749;1257;43978;-59
2023/06/09 01:54:07;;;;;;;11.00;8.90;;;;;;;15.25;100.00;100064.40;180868;1256;43619;-58
2023/06/09 01:58:22;;;;;;;20.90;9.10;;;;;;;15.21;100.00;100061.50;180940;1257;44707;-59
2023/06/09 02:02:35;;;;;;;22.40;9.80;;;;;;;15.15;100.00;100056.39;180774;1260;43573;-58
2023/06/09 02:06:43;;;;;;;22.00;7.90;;;;;;;15.06;100.00;100052.17;180884;1256;58386;-58
2023/06/09 02:10:48;;;;;;;22.30;10.80;;;;;;;14.88;100.00;100052.05;180587;1256;45958;-58
2023/06/09 02:19:54;;;;;;;16.20;9.60;;;;;;;14.77;100.00;100056.89;180649;1257;43930;-59
2023/06/09 02:23:57;;;;;;;20.70;7.70;;;;;;;14.77;100.00;100055.52;180609;1258;43897;-58
2023/06/09 02:28:04;;;;;;;24.90;8.90;;;;;;;14.77;100.00;100064.55;180523;1257;60155;-59
2023/06/09 02:32:10;;;;;;;20.70;9.50;;;;;;;14.80;100.00;100062.65;180721;1258;43784;-59
2023/06/09 02:36:15;;;;;;;18.20;9.00;;;;;;;14.78;100.00;100064.42;180530;1260;45958;-59
2023/06/09 02:40:22;;;;;;;12.10;8.50;;;;;;;14.78;100.00;100063.45;180712;1258;45922;-59
2023/06/09 02:44:26;;;;;;;16.10;9.30;;;;;;;14.83;100.00;100070.23;180776;1257;45943;-59
2023/06/09 02:48:29;;;;;;;17.80;8.80;;;;;;;14.82;100.00;100074.82;180543;1257;58426;-59
2023/06/09 02:52:58;;;;;;;18.10;9.50;;;;;;;14.74;100.00;100067.23;180708;1257;43892;-59
2023/06/09 02:57:04;;;;;;;21.30;9.80;;;;;;;14.70;100.00;100058.69;180652;1258;45951;-59
2023/06/09 03:01:08;;;;;;;24.40;11.70;;;;;;;14.70;100.00;100054.05;180580;1257;46099;-59
2023/06/09 03:05:12;;;;;;;15.10;8.20;;;;;;;14.77;100.00;100054.98;180668;1257;43541;-59
2023/06/09 03:09:19;;;;;;;25.70;10.70;;;;;;;14.89;100.00;100058.71;180775;1256;57385;-59
2023/06/09 03:13:23;;;;;;;15.70;10.00;;;;;;;14.99;100.00;100057.30;180692;1257;43603;-59
2023/06/09 03:17:31;;;;;;;20.80;9.00;;;;;;;15.08;100.00;100061.45;180476;1257;44869;-59
2023/06/09 03:21:35;;;;;;;19.60;12.60;;;;;;;15.17;100.00;100062.73;180582;1257;43526;-59
2023/06/09 03:25:39;;;;;;;22.70;12.10;;;;;;;15.24;100.00;100068.81;180617;1257;45955;-59
2023/06/09 03:30:38;;;;;;;12.40;7.80;;;;;;;15.25;100.00;100072.94;180452;1257;59359;-58
2023/06/09 03:34:41;;;;;;;21.30;11.20;;;;;;;15.20;100.00;100073.39;180518;1257;43721;-58
2023/06/09 03:38:45;;;;;;;14.20;10.90;;;;;;;15.22;100.00;100079.92;180513;1260;44925;-59
2023/06/09 03:42:48;;;;;;;27.50;9.40;;;;;;;15.27;100.00;100081.19;180599;1257;45999;-59
2023/06/09 03:46:55;;;;;;;20.00;12.80;;;;;;;15.38;100.00;100082.40;180815;1257;43666;-59
2023/06/09 03:50:59;;;;;;;20.50;13.90;;;;;;;15.51;100.00;100085.95;180846;1256;57733;-59
2023/06/09 03:55:03;;;;;;;16.70;10.20;;;;;;;15.56;100.00;100084.97;180705;1256;44109;-59
2023/06/09 03:59:07;;;;;;;15.10;12.90;;;;;;;15.55;100.00;100086.34;180807;1257;44637;-59
2023/06/09 04:03:30;;;;;;;19.40;14.70;;;;;;;15.70;100.00;100083.99;180684;1257;44962;-59
2023/06/09 04:07:33;;;;;;;17.60;12.50;;;;;;;15.95;100.00;100079.95;180532;1256;45013;-59
2023/06/09 04:11:37;;;;;;;14.50;12.80;;;;;;;16.13;100.00;100082.10;180651;1257;58428;-60
2023/06/09 04:15:41;;;;;;;23.20;17.10;;;;;;;16.38;100.00;100086.59;179585;1257;1379166;-59
2023/06/09 04:24:52;;;;;;;;;;;;;;;17.88;100.00;100077.34;180588;1257;43779;-59
2023/06/09 04:28:56;;;;;;;31.80;15.20;;;;;;;19.08;100.00;100072.98;180614;1260;43703;-60
2023/06/09 04:32:59;;;;;;;17.90;12.20;;;;;;;20.33;100.00;100076.01;180566;1257;58243;-60
2023/06/09 04:37:06;;;;;;;16.20;12.70;;;;;;;21.43;96.04;100066.98;180474;1257;45992;-60
2023/06/09 04:41:09;;;;;;;;;;;;;;;22.37;87.17;100063.29;180715;1256;43780;-60
2023/06/09 04:45:13;;;;;;;20.70;12.50;;;;;;;23.01;85.21;100061.60;180718;1256;44180;-60
2023/06/09 04:49:49;;;;;;;13.60;12.20;;;;;;;23.51;79.49;100060.84;180797;1257;46036;-59
2023/06/09 04:53:54;;;;;;;16.00;11.90;;;;;;;23.90;78.02;100063.08;180837;1256;59467;-60
2023/06/09 04:57:57;;;;;;;19.70;11.10;;;;;;;24.41;76.23;100060.13;180794;1256;43657;-60
2023/06/09 05:02:11;;;;;;;14.70;11.10;;;;;;;24.74;74.78;100058.44;180738;1256;44976;-60
2023/06/09 05:06:15;;;;;;;23.00;13.80;;;;;;;25.34;74.18;100069.45;180758;1257;43720;-60
2023/06/09 05:10:20;;;;;;;15.80;11.70;;;;;;;26.11;71.49;100065.23;180792;1257;43657;-60
2023/06/09 05:14:33;;;;;;;18.20;10.60;;;;;;;26.58;67.60;100076.88;180680;1257;60121;-60
2023/06/09 05:18:39;;;;;;;16.50;12.70;;;;;;;26.86;66.79;100079.14;180772;1257;43862;-60
2023/06/09 05:22:43;;;;;;;15.30;13.00;;;;;;;27.28;66.28;100079.04;180794;1256;43658;-60
2023/06/09 05:26:48;;;;;;;13.20;11.80;;;;;;;27.69;64.23;100073.35;180746;1257;43752;-60
2023/06/09 05:30:52;;;;;;;15.20;10.70;;;;;;;27.66;63.70;100069.05;180767;1257;43733;-60
2023/06/09 05:34:57;;;;;;;11.90;10.50;;;;;;;27.45;64.69;100066.48;181081;1256;58607;-61
2023/06/09 05:39:01;;;;;;;18.00;12.10;;;;;;;26.88;66.09;100064.12;180979;1257;43679;-61
2023/06/09 05:43:07;;;;;;;14.10;12.00;;;;;;;26.44;67.69;100063.19;181018;1256;43766;-60
2023/06/09 05:47:13;;;;;;;12.50;10.60;;;;;;;25.89;69.82;100064.44;180753;1257;43760;-60
2023/06/09 05:51:18;;;;;;;14.10;10.70;;;;;;;25.76;70.69;100064.07;180854;1257;43617;-60
2023/06/09 05:55:26;;;;;;;13.00;10.50;;;;;;;25.82;69.24;100070.25;180753;1256;59224;-60
2023/06/09 05:59:32;;;;;;;12.50;10.10;;;;;;;26.25;68.25;100075.41;180563;1257;46060;-60
2023/06/09 06:03:36;;;;;;;;;;;;;;;26.83;67.09;100077.65;180775;1256;43665;-60
2023/06/09 06:07:41;;;;;;;15.00;11.80;;;;;;;27.20;66.09;100083.91;180824;1257;43421;-60
2023/06/09 06:11:45;;;;;;;12.10;10.90;;;;;;;27.36;66.04;100084.06;180801;1256;45993;-61
2023/06/09 06:15:51;;;;;;;12.20;10.20;;;;;;;27.07;66.91;100090.83;180711;1260;59197;-60
2023/06/09 06:19:57;;;;;;;11.70;10.30;;;;;;;26.72;68.90;100091.15;180766;1256;45098;-60
2023/06/09 06:24:01;;;;;;;15.50;11.10;;;;;;;26.65;69.20;100096.02;180670;1257;43571;-60
2023/06/09 06:28:07;;;;;;;12.70;11.10;;;;;;;26.26;69.17;100097.80;180818;1256;44999;-60
2023/06/09 06:32:11;;;;;;;12.10;10.10;;;;;;;26.23;69.75;100094.86;180755;1257;46005;-60
2023/06/09 06:36:14;;;;;;;10.40;9.30;;;;;;;26.63;67.92;100093.61;180734;1256;58823;-60
2023/06/09 06:40:18;;;;;;;11.50;9.60;;;;;;;27.01;65.78;100094.16;180734;1257;43760;-61
2023/06/09 06:44:21;;;;;;;9.50;8.10;;;;;;;27.33;64.23;100090.66;180670;1256;43587;-60
2023/06/09 06:48:28;;;;;;;11.10;8.90;;;;;;;27.54;63.74;100092.52;180574;1256;43611;-60
2023/06/09 06:52:33;;;;;;;11.90;10.00;;;;;;;27.50;62.81;100098.48;180728;1256;44705;-61
2023/06/09 06:56:37;;;;;;;8.10;7.30;;;;;;;27.50;62.28;100102.56;180793;1256;57910;-60
2023/06/09 07:00:40;;;;;;;8.50;7.50;;;;;;;27.36;60.68;100105.96;180722;1256;45977;-61
2023/06/09 07:04:44;;;;;;;13.30;9.00;;;;;;;27.10;61.11;100104.77;180973;1256;43628;-60
2023/06/09 07:08:48;;;;;;;9.00;8.00;;;;;;;26.78;61.36;100099.20;180748;1256;44456;-61
2023/06/09 07:12:54;;;;;;;17.50;9.40;;;;;;;26.65;63.59;100099.24;180759;1257;43976;-61
2023/06/09 07:16:57;;;;;;;13.50;10.30;;;;;;;26.50;64.59;100106.75;180716;1256;57205;-60
2023/06/09 07:21:01;;;;;;;13.50;8.50;;;;;;;26.08;66.83;100101.67;180516;1256;45181;-60
2023/06/09 07:25:10;;;;;;;10.30;8.30;;;;;;;25.97;68.60;100099.73;180387;1257;43757;-60
2023/06/09 07:29:14;;;;;;;11.00;8.90;;;;;;;26.07;69.53;100094.55;180506;1256;46565;-60
2023/06/09 07:33:23;;;;;;;18.40;9.40;;;;;;;26.32;66.76;100092.96;180686;1256;45010;-60
2023/06/09 07:37:27;;;;;;;10.10;9.10;;;;;;;26.51;66.21;100094.66;180638;1256;57190;-60
2023/06/09 07:41:30;;;;;;;9.30;8.30;;;;;;;26.61;65.37;100089.36;180722;1256;43563;-60
2023/06/09 07:45:36;;;;;;;14.40;9.60;;;;;;;26.50;66.28;100096.81;180720;1257;44818;-60
2023/06/09 07:49:42;;;;;;;10.50;9.40;;;;;;;26.32;68.97;100093.98;180659;1256;43793;-60
2023/06/09 07:53:46;;;;;;;10.20;9.20;;;;;;;26.14;70.97;100090.01;180781;1256;45098;-60
2023/06/09 07:57:51;;;;;;;14.50;9.60;;;;;;;25.92;71.94;100092.80;180729;1256;58415;-60
2023/06/09 08:01:55;;;;;;;11.40;8.10;;;;;;;25.75;72.35;100094.98;180757;1256;43809;-61
2023/06/09 08:06:00;;;;;;;13.40;11.60;;;;;;;25.55;74.97;100094.92;180747;1256;44771;-60
2023/06/09 08:10:09;;;;;;;13.70;10.90;;;;;;;25.50;74.31;100099.39;180609;1256;43676;-60
2023/06/09 08:14:13;;;;;;;12.50;10.30;;;;;;;25.48;74.78;100100.73;180657;1256;44158;-60
2023/06/09 08:18:17;;;;;;;10.90;9.90;;;;;;;25.25;77.86;100103.93;180591;1256;59196;-60
2023/06/09 08:22:20;;;;;;;11.30;8.80;;;;;;;25.17;79.47;100106.05;180826;1256;46118;-60
2023/06/09 08:26:30;;;;;;;10.30;8.60;;;;;;;25.20;77.69;100110.57;180648;1256;43527;-60
2023/06/09 08:30:35;;;;;;;11.20;9.40;;;;;;;25.33;75.64;100112.91;180793;1256;44845;-60
2023/06/09 08:34:38;;;;;;;12.70;10.50;;;;;;;25.39;76.23;100115.00;180815;1257;43888;-60
2023/06/09 08:38:42;;;;;;;9.40;8.40;;;;;;;25.52;76.84;100114.23;180633;1256;58130;-60
2023/06/09 08:42:49;;;;;;;14.90;9.50;;;;;;;25.65;75.13;100113.89;180712;1256;44706;-60
2023/06/09 08:47:00;;;;;;;11.60;10.10;;;;;;;25.73;75.26;100111.42;180866;1256;43870;-60
2023/06/09 08:51:08;;;;;;;11.60;8.90;;;;;;;25.76;74.80;100109.23;180711;1256;44591;-60
2023/06/09 08:55:14;;;;;;;10.50;9.40;;;;;;;25.92;73.92;100106.80;180563;1257;43514;-60
2023/06/09 08:59:19;;;;;;;11.50;9.20;;;;;;;26.28;73.63;100099.77;180733;1256;58766;-61
2023/06/09 09:03:23;;;;;;;10.20;8.50;;;;;;;26.67;73.66;100095.73;180768;1256;45056;-60
2023/06/09 09:07:31;;;;;;;8.40;7.60;;;;;;;27.04;71.91;100092.75;180952;1256;43821;-61
2023/06/09 09:11:35;;;;;;;8.70;7.80;;;;;;;27.32;68.50;100091.23;180957;1256;44421;-60
2023/06/09 09:15:47;;;;;;;9.10;8.20;;;;;;;27.49;69.93;100092.45;180800;1256;44640;-60
2023/06/09 09:19:52;;;;;;;8.90;7.60;;;;;;;27.34;68.23;100096.09;180986;1259;58871;-60
2023/06/09 09:24:07;;;;;;;13.10;9.70;;;;;;;27.26;67.26;100097.36;180816;1256;43779;-60
2023/06/09 09:28:15;;;;;;;14.30;9.00;;;;;;;27.12;71.41;100098.80;180743;1256;45865;-60
2023/06/09 09:32:25;;;;;;;10.00;9.10;;;;;;;26.96;70.81;100099.02;180606;1257;43799;-60
2023/06/09 09:36:37;;;;;;;10.10;9.10;;;;;;;26.85;70.12;100096.41;180723;1256;43759;-60
2023/06/09 09:40:47;;;;;;;21.20;10.70;;;;;;;26.88;71.98;100098.58;180658;1256;57974;-60
2023/06/09 09:44:51;;;;;;;10.10;9.10;;;;;;;26.96;73.91;100098.56;180692;1256;45059;-60
2023/06/09 09:49:01;;;;;;;9.30;8.30;;;;;;;27.01;73.58;100091.05;180630;1256;44207;-60
2023/06/09 09:53:09;;;;;;;12.20;9.30;;;;;;;27.11;70.71;100091.09;180666;1256;44306;-61
2023/06/09 09:57:13;;;;;;;10.80;8.20;;;;;;;27.25;74.62;100089.77;180780;1256;44966;-60
2023/06/09 10:01:22;;;;;;;10.00;9.00;;;;;;;27.29;70.24;100089.31;180824;1257;58526;-60
2023/06/09 10:05:31;;;;;;;10.70;8.60;;;;;;;27.24;68.96;100084.37;180812;1256;45897;-60
2023/06/09 10:09:36;;;;;;;7.20;6.60;;;;;;;27.30;70.70;100086.73;180783;1257;46028;-60
2023/06/09 10:13:54;;;;;;;11.20;9.10;;;;;;;27.40;72.00;100076.55;180610;1257;44946;-60
2023/06/09 10:18:00;;;;;;;10.80;8.90;;;;;;;27.53;69.21;100076.48;180847;1256;43859;-60
2023/06/09 10:22:04;;;;;;;12.20;7.10;;;;;;;27.54;69.04;100074.91;180797;1256;58060;-60
2023/06/09 10:26:15;;;;;;;8.60;7.60;;;;;;;27.47;69.46;100066.86;180772;1256;45946;-60
2023/06/09 10:30:34;;;;;;;9.00;8.10;;;;;;;27.46;71.39;100058.37;180884;1256;44016;-60
2023/06/09 10:34:49;;;;;;;10.10;7.50;;;;;;;27.40;69.09;100058.96;180858;1256;48169;-60
2023/06/09 10:44:50;;;;;;;9.40;8.30;;;;;;;27.37;70.56;100056.61;180722;1256;59275;-60
2023/06/09 10:48:54;;;;;;;11.20;8.70;;;;;;;27.32;72.13;100051.27;179914;1265;43805;-60
2023/06/09 10:53:00;;;;;;;11.70;9.10;;;;;;;27.21;70.00;100050.99;179889;1265;44102;-60
2023/06/09 10:57:51;;;;;;;12.20;9.70;;;;;;;27.08;70.66;100048.50;179941;1266;46006;-60
2023/06/09 11:06:06;;;;;;;8.90;8.00;;;;;;;26.98;71.34;100050.39;180074;1265;60181;-61
2023/06/09 11:10:12;;;;;;;9.50;8.60;;;;;;;26.99;72.36;100046.62;179771;1267;43633;-60
2023/06/09 11:14:51;;;;;;;9.80;8.80;;;;;;;26.96;70.49;100046.30;179705;1265;43865;-60
2023/06/09 11:19:34;;;;;;;10.60;9.00;;;;;;;27.01;72.63;100038.91;179715;1267;45995;-60
2023/06/09 11:24:07;;;;;;;9.90;8.40;;;;;;;27.23;76.43;100032.48;180566;1257;45910;-60
2023/06/09 11:28:13;;;;;;;9.40;8.60;;;;;;;27.53;71.07;100025.45;180659;1257;58444;-60
2023/06/09 11:32:19;;;;;;;9.10;8.20;;;;;;;27.67;74.31;100019.97;180511;1258;45083;-60
2023/06/09 11:36:27;;;;;;;26.20;10.30;;;;;;;27.63;75.88;100018.81;180645;1257;43763;-60
2023/06/09 11:40:35;;;;;;;9.10;8.20;;;;;;;27.62;73.50;100013.67;180693;1257;44511;-60
2023/06/09 11:44:40;;;;;;;10.20;8.80;;;;;;;27.65;73.56;100010.33;180715;1257;43532;-60
2023/06/09 11:49:13;;;;;;;10.70;9.30;;;;;;;27.48;75.32;100013.40;180622;1261;58529;-60
2023/06/09 11:53:25;;;;;;;10.70;9.60;;;;;;;27.43;76.54;100017.94;180609;1257;43737;-60
2023/06/09 11:57:34;;;;;;;10.80;9.60;;;;;;;27.35;77.39;100018.90;180610;1257;43545;-60
2023/06/09 12:01:40;;;;;;;9.10;8.10;;;;;;;27.22;75.85;100021.42;180793;1257;45379;-60
2023/06/09 12:05:48;;;;;;;;;;;;;;;27.13;76.45;100024.48;180899;1256;43520;-60
2023/06/09 12:09:57;;;;;;;9.40;8.40;;;;;;;26.98;76.06;100027.24;180691;1256;57388;-60
2023/06/09 12:14:00;;;;;;;11.10;9.60;;;;;;;26.90;72.72;100021.08;180694;1256;45091;-60
2023/06/09 12:18:06;;;;;;;9.40;8.10;;;;;;;27.02;71.56;100019.77;180976;1256;43584;-60
2023/06/09 12:22:12;;;;;;;9.70;8.80;;;;;;;27.10;72.46;100017.92;180962;1256;44324;-60
2023/06/09 12:26:20;;;;;;;17.60;10.90;;;;;;;27.16;73.27;100017.33;181099;1256;43515;-60
2023/06/09 12:30:38;;;;;;;10.20;9.20;;;;;;;27.23;78.40;100018.27;180752;1256;58392;-60
2023/06/09 12:34:48;;;;;;;10.70;8.30;;;;;;;27.50;74.59;100007.66;180853;1256;45798;-60
2023/06/09 12:39:18;;;;;;;10.80;9.10;;;;;;;27.65;69.62;100000.06;180815;1256;43521;-60
2023/06/09 12:43:43;;;;;;;10.80;9.50;;;;;;;27.78;73.92;99993.19;180671;1256;44677;-60
2023/06/09 12:47:49;;;;;;;10.00;8.80;;;;;;;27.83;70.15;99997.24;180857;1256;45526;-60
2023/06/09 12:51:54;;;;;;;10.20;8.20;;;;;;;27.82;70.88;99990.45;180775;1256;58702;-60
2023/06/09 12:55:57;;;;;;;;;;;;;;;27.84;69.76;99992.72;180766;1256;46028;-60
2023/06/09 13:00:04;;;;;;;13.00;9.90;;;;;;;27.75;70.98;99993.39;180801;1257;43358;-60
2023/06/09 13:04:25;;;;;;;9.40;8.10;;;;;;;27.57;72.54;99988.83;180595;1256;45949;-60
2023/06/09 13:09:23;;;;;;;12.10;9.00;;;;;;;27.56;72.46;99989.90;181016;1256;44702;-59
2023/06/09 13:13:27;;;;;;;13.10;9.00;;;;;;;27.68;73.11;99988.80;179669;1267;58522;-59
2023/06/09 13:17:34;;;;;;;9.40;8.10;;;;;;;27.76;73.14;99980.54;179871;1267;44369;-59
2023/06/09 13:21:38;;;;;;;10.00;7.80;;;;;;;27.77;72.83;99979.72;179697;1267;44907;-60
2023/06/09 13:25:52;;;;;;;8.10;6.90;;;;;;;27.54;73.66;99982.60;179833;1267;44584;-60
2023/06/09 13:29:55;;;;;;;8.50;7.60;;;;;;;27.12;77.43;99983.73;179677;1267;46069;-60
2023/06/09 13:33:59;;;;;;;8.70;7.90;;;;;;;26.86;78.68;99980.20;179603;1267;57969;-60
2023/06/09 13:38:06;;;;;;;15.40;8.10;;;;;;;26.60;78.25;99988.27;179552;1267;43578;-59
2023/06/09 13:42:11;;;;;;;9.50;8.50;;;;;;;26.27;80.25;99985.09;179917;1267;43558;-60
2023/06/09 13:46:15;;;;;;;11.00;7.40;;;;;;;26.07;81.00;99982.48;179739;1267;43707;-60
2023/06/09 13:50:32;;;;;;;12.90;8.40;;;;;;;25.95;82.27;99983.90;179794;1267;43832;-59
2023/06/09 13:54:35;;;;;;;10.90;8.60;;;;;;;26.01;84.17;99985.99;179750;1270;58274;-60
2023/06/09 13:58:41;;;;;;;8.80;7.90;;;;;;;26.12;83.77;99985.50;179762;1267;44031;-60
2023/06/09 14:02:45;;;;;;;10.20;9.20;;;;;;;26.60;85.75;99992.20;179733;1267;46024;-60
2023/06/09 14:06:49;;;;;;;9.90;9.00;;;;;;;27.09;83.22;99986.36;179679;1267;46095;-60
2023/06/09 14:10:53;;;;;;;9.60;8.50;;;;;;;27.20;78.43;99988.91;179539;1266;44559;-60
2023/06/09 14:14:58;;;;;;;10.70;9.60;;;;;;;27.08;78.00;99980.86;179687;1266;59358;-60
2023/06/09 14:19:07;;;;;;;9.30;7.50;;;;;;;27.09;79.94;99980.66;180110;1267;43894;-60
2023/06/09 14:23:11;;;;;;;7.50;6.70;;;;;;;27.27;76.02;99978.05;179991;1266;43630;-59
2023/06/09 14:27:19;;;;;;;11.00;6.60;;;;;;;27.29;76.30;99973.88;179753;1266;46139;-59
2023/06/09 14:31:25;;;;;;;6.40;5.80;;;;;;;27.40;77.35;99968.30;179825;1265;45030;-60
2023/06/09 14:35:29;;;;;;;10.40;7.00;;;;;;;27.49;74.89;99968.09;179847;1266;57858;-59
2023/06/09 14:39:59;;;;;;;8.40;7.70;;;;;;;27.77;72.39;99964.20;179813;1265;43533;-60
2023/06/09 14:44:04;;;;;;;38.00;10.80;;;;;;;27.79;66.68;99960.03;179632;1267;44586;-61
2023/06/09 14:48:09;;;;;;;15.10;8.30;;;;;;;27.72;67.07;99955.34;179698;1267;45284;-60
2023/06/09 14:52:16;;;;;;;6.60;5.80;;;;;;;27.53;67.25;99957.84;179770;1267;44025;-60
2023/06/09 14:56:20;;;;;;;5.20;4.80;;;;;;;27.50;67.07;99960.46;180213;1267;57791;-61
2023/06/09 15:00:26;;;;;;;6.40;5.80;;;;;;;27.38;67.44;99961.33;179656;1267;43808;-60
2023/06/09 15:04:30;;;;;;;5.90;4.90;;;;;;;27.14;67.87;99965.59;179815;1266;43597;-61
2023/06/09 15:08:35;;;;;;;6.20;5.50;;;;;;;27.06;70.10;99972.66;179715;1267;44079;-61
2023/06/09 15:12:38;;;;;;;9.00;6.60;;;;;;;26.90;73.31;99976.97;179607;1267;44387;-61
2023/06/09 15:16:45;;;;;;;6.80;6.00;;;;;;;26.85;74.99;99967.92;179503;1266;60712;-60
2023/06/09 15:20:52;;;;;;;7.10;5.10;;;;;;;26.71;76.37;99966.24;179851;1266;43581;-60
2023/06/09 15:25:02;;;;;;;9.10;8.30;;;;;;;26.66;72.45;99956.38;179842;1266;43782;-60
2023/06/09 15:29:06;;;;;;;11.30;10.20;;;;;;;26.69;71.36;99950.81;180970;1266;43569;-60
2023/06/09 15:33:11;;;;;;;21.80;12.00;;;;;;;26.70;70.15;99947.23;181086;1265;43795;-60
2023/06/09 15:37:14;;;;;;;8.90;7.90;;;;;;;26.61;70.77;99942.59;180937;1268;57887;-60
2023/06/09 15:41:18;;;;;;;11.30;7.10;;;;;;;26.50;72.64;99937.02;180487;1270;43844;-60
2023/06/09 15:45:21;;;;;;;6.90;5.90;;;;;;;26.51;74.29;99939.05;179590;1276;45647;-60
2023/06/09 15:49:24;;;;;;;6.80;5.70;;;;;;;26.50;74.53;99933.24;179737;1276;43693;-60
2023/06/09 15:53:27;;;;;;;5.70;5.10;;;;;;;26.65;75.04;99926.40;179794;1276;43048;-60
2023/06/09 15:57:36;;;;;;;6.80;5.70;;;;;;;26.86;75.08;99924.33;179858;1276;58316;-60
2023/06/09 16:01:39;;;;;;;7.60;5.70;;;;;;;27.08;72.42;99925.41;179762;1276;43107;-60
2023/06/09 16:05:48;;;;;;;8.50;6.00;;;;;;;27.32;71.83;99922.33;179764;1277;43229;-59
2023/06/09 16:09:52;;;;;;;6.60;6.00;;;;;;;27.59;73.05;99923.36;179711;1276;43651;-59
2023/06/09 16:17:37;;;;;;;7.60;5.60;;;;;;;27.66;70.77;99920.26;177013;1284;568157;-58
2023/06/09 16:21:43;;;;;;;5.80;5.30;;;;;;;27.48;70.58;99919.44;180048;1267;58688;-58
2023/06/09 16:25:48;;;;;;;6.00;5.50;;;;;;;27.39;73.07;99916.98;180439;1260;43658;-58
2023/06/09 16:29:54;;;;;;;6.20;5.60;;;;;;;27.30;70.69;99916.52;172923;1257;10154120;-58
2023/06/09 16:34:08;;;;;;;6.80;5.70;;;;;;;27.10;71.81;99921.56;180666;1261;46011;-58
2023/06/09 16:38:22;;;;;;;8.60;5.30;;;;;;;27.08;72.68;99916.57;180585;1257;43566;-59
2023/06/09 16:42:25;;;;;;;5.50;5.00;;;;;;;26.97;73.98;99912.48;180645;1257;45970;-58
2023/06/09 16:46:29;;;;;;;8.40;5.90;;;;;;;26.84;74.17;99914.30;180630;1257;44892;-58
2023/06/09 16:50:33;;;;;;;5.40;4.90;;;;;;;26.72;75.85;99913.88;180595;1258;57561;-59
2023/06/09 16:54:38;;;;;;;7.10;5.60;;;;;;;26.64;76.02;99922.13;180549;1257;45883;-59
2023/06/09 16:58:42;;;;;;;6.00;4.90;;;;;;;26.54;75.66;99927.50;180605;1257;45868;-58
2023/06/09 17:02:46;;;;;;;6.60;6.00;;;;;;;26.40;76.78;99932.77;180623;1257;43567;-58
2023/06/09 17:06:52;;;;;;;5.60;4.90;;;;;;;26.24;75.94;99937.44;180584;1257;43470;-58
2023/06/09 17:10:57;;;;;;;7.40;4.30;;;;;;;26.05;75.80;99943.65;180430;1259;58171;-58
2023/06/09 17:15:01;;;;;;;5.00;4.60;;;;;;;25.94;77.23;99947.02;180461;1257;45935;-58
2023/06/09 17:19:58;;;;;;;7.20;5.80;;;;;;;25.86;78.15;99946.45;180549;1257;45871;-58
2023/06/09 17:24:03;;;;;;;7.00;5.80;;;;;;;25.76;78.31;99949.34;180483;1259;43541;-58
2023/06/09 17:28:10;;;;;;;4.90;4.50;;;;;;;25.67;79.34;99950.46;180557;1257;43967;-58
2023/06/09 17:32:13;;;;;;;;;;;;;;;25.61;79.76;99952.02;180325;1257;57288;-59
2023/06/09 17:36:24;;;;;;;11.20;5.80;;;;;;;25.58;80.35;99948.18;180828;1257;43614;-59
2023/06/09 17:40:28;;;;;;;12.80;6.00;;;;;;;25.55;81.45;99946.54;180949;1257;43756;-59
2023/06/09 17:44:38;;;;;;;5.00;4.50;;;;;;;25.46;83.06;99949.66;180807;1257;44907;-59
2023/06/09 17:48:45;;;;;;;4.80;4.40;;;;;;;25.46;83.26;99952.02;180665;1257;43570;-60
2023/06/09 17:52:49;;;;;;;6.20;4.90;;;;;;;25.41;83.50;99952.30;180667;1257;59259;-58
2023/06/09 17:56:55;;;;;;;6.70;4.60;;;;;;;25.34;83.92;99951.10;180660;1257;46089;-59
2023/06/09 18:00:58;;;;;;;12.90;10.30;;;;;;;25.27;83.89;99976.31;180621;1260;45964;-56
2023/06/09 18:05:28;;;;;;;7.10;5.40;;;;;;;24.85;86.76;100021.94;180496;1257;43528;-58
2023/06/09 18:09:33;;;;;;;6.00;5.10;;;;;;;24.28;84.57;100035.91;180742;1257;45116;-58
2023/06/09 18:13:37;;;;;;;3.10;2.20;;;;;;;23.70;75.51;100054.30;180547;1258;58381;-58
2023/06/09 18:17:41;;;;;;;10.10;3.40;;;;;;;23.24;74.99;100074.83;180660;1257;46543;-59
2023/06/09 18:21:47;;;;;;;10.00;3.90;;;;;;;22.59;87.61;100093.88;180489;1257;45875;-61
2023/06/09 18:25:51;;;;;;;13.60;4.20;;;;;;;21.76;99.30;100093.70;180570;1259;43673;-57
2023/06/09 18:29:58;;;;;;;7.00;3.20;;;;;;;21.02;100.00;100077.99;180413;1258;43569;-58
2023/06/09 18:34:03;;;;;;;8.30;4.70;;;;;;;20.36;100.00;100064.25;180619;1258;60329;-57
2023/06/09 18:38:07;;;;;;;8.80;4.60;;;;;;;19.96;100.00;100059.00;180895;1254;46044;-58
2023/06/09 18:42:13;;;;;;;8.20;5.70;;;;;;;19.80;100.00;100070.36;180789;1256;43592;-58
2023/06/09 18:46:19;;;;;;;12.10;10.10;;;;;;;19.67;100.00;100066.51;180804;1256;45877;-58
2023/06/09 18:50:23;;;;;;;14.20;11.70;;;;;;;19.58;100.00;100066.98;180792;1256;43613;-58
2023/06/09 18:55:04;;;;;;;9.20;5.20;;;;;;;19.54;100.00;100069.96;180987;1254;59633;-59
2023/06/09 18:59:08;;;;;;;4.40;3.80;;;;;;;19.57;100.00;100089.89;180826;1257;46085;-58
2023/06/09 19:03:11;;;;;;;7.10;3.90;;;;;;;19.42;100.00;100145.48;180965;1256;44006;-57
2023/06/09 19:07:17;;;;;;;6.00;3.30;;;;;;;19.16;100.00;100148.27;180808;1254;43783;-58
2023/06/09 19:11:26;;;;;;;4.60;4.10;;;;;;;19.15;100.00;100131.46;180819;1254;44518;-59
2023/06/09 19:15:30;;;;;;;5.30;3.80;;;;;;;19.07;100.00;100144.49;180813;1256;59149;-58